sensor_id;sensor_type;location;lat;lon;timestamp;temperature;humidity
792;DHT22;379;49.022;12.148;2023-04-20T00:01:47;1.60;99.90
792;DHT22;379;49.022;12.148;2023-04-20T00:04:14;1.50;99.90
792;DHT22;379;49.022;12.148;2023-04-20T00:06:42;1.40;99.90
792;DHT22;379;49.022;12.148;2023-04-20T00:09:09;1.40;99.90
792;DHT22;379;49.022;12.148;2023-04-20T00:11:36;1.30;99.90
792;DHT22;379;49.022;12.148;2023-04-20T00:14:03;1.30;99.90
792;DHT22;379;49.022;12.148;2023-04-20T00:16:29;1.40;99.90
792;DHT22;379;49.022;12.148;2023-04-20T00:18:57;1.30;99.90
792;DHT22;379;49.022;12.148;2023-04-20T00:21:24;1.20;99.90
792;DHT22;379;49.022;12.148;2023-04-20T00:23:52;1.20;99.90
792;DHT22;379;49.022;12.148;2023-04-20T00:26:19;1.20;99.90
792;DHT22;379;49.022;12.148;2023-04-20T00:28:46;1.10;99.90
792;DHT22;379;49.022;12.148;2023-04-20T00:31:13;1.10;99.90
792;DHT22;379;49.022;12.148;2023-04-20T00:33:40;1.10;99.90
792;DHT22;379;49.022;12.148;2023-04-20T00:36:07;1.00;99.90
792;DHT22;379;49.022;12.148;2023-04-20T00:38:34;0.90;99.90
792;DHT22;379;49.022;12.148;2023-04-20T00:41:02;0.90;99.90
792;DHT22;379;49.022;12.148;2023-04-20T00:43:29;0.80;99.90
792;DHT22;379;49.022;12.148;2023-04-20T00:45:56;0.80;99.90
792;DHT22;379;49.022;12.148;2023-04-20T00:48:22;0.80;99.90
792;DHT22;379;49.022;12.148;2023-04-20T00:50:49;0.60;99.90
792;DHT22;379;49.022;12.148;2023-04-20T00:53:17;0.60;99.90
792;DHT22;379;49.022;12.148;2023-04-20T00:55:44;0.60;99.90
792;DHT22;379;49.022;12.148;2023-04-20T00:58:13;0.60;99.90
792;DHT22;379;49.022;12.148;2023-04-20T01:00:40;0.40;99.90
792;DHT22;379;49.022;12.148;2023-04-20T01:03:07;0.40;99.90
792;DHT22;379;49.022;12.148;2023-04-20T01:05:34;0.30;99.90
792;DHT22;379;49.022;12.148;2023-04-20T01:08:01;0.20;99.90
792;DHT22;379;49.022;12.148;2023-04-20T01:10:28;0.10;99.90
792;DHT22;379;49.022;12.148;2023-04-20T01:12:54;0.30;99.90
792;DHT22;379;49.022;12.148;2023-04-20T01:15:23;0.40;99.90
792;DHT22;379;49.022;12.148;2023-04-20T01:17:49;0.40;99.90
792;DHT22;379;49.022;12.148;2023-04-20T01:20:16;0.40;99.90
792;DHT22;379;49.022;12.148;2023-04-20T01:22:47;0.40;99.90
792;DHT22;379;49.022;12.148;2023-04-20T01:25:14;0.40;99.90
792;DHT22;379;49.022;12.148;2023-04-20T01:27:41;0.40;99.90
792;DHT22;379;49.022;12.148;2023-04-20T01:30:09;0.30;99.90
792;DHT22;379;49.022;12.148;2023-04-20T01:32:36;0.30;99.90
792;DHT22;379;49.022;12.148;2023-04-20T01:35:03;0.40;99.90
792;DHT22;379;49.022;12.148;2023-04-20T01:37:30;0.60;99.90
792;DHT22;379;49.022;12.148;2023-04-20T01:39:58;0.90;99.90
792;DHT22;379;49.022;12.148;2023-04-20T01:42:25;1.10;99.90
792;DHT22;379;49.022;12.148;2023-04-20T01:44:52;1.30;99.90
792;DHT22;379;49.022;12.148;2023-04-20T01:47:19;1.40;99.90
792;DHT22;379;49.022;12.148;2023-04-20T01:49:45;1.50;99.90
792;DHT22;379;49.022;12.148;2023-04-20T01:52:12;1.70;99.90
792;DHT22;379;49.022;12.148;2023-04-20T01:54:39;1.70;99.90
792;DHT22;379;49.022;12.148;2023-04-20T01:57:07;1.80;99.90
792;DHT22;379;49.022;12.148;2023-04-20T01:59:33;1.90;99.90
792;DHT22;379;49.022;12.148;2023-04-20T02:02:00;1.90;99.90
792;DHT22;379;49.022;12.148;2023-04-20T02:04:27;2.00;99.90
792;DHT22;379;49.022;12.148;2023-04-20T02:06:53;2.00;99.90
792;DHT22;379;49.022;12.148;2023-04-20T02:09:20;2.10;99.90
792;DHT22;379;49.022;12.148;2023-04-20T02:11:47;2.20;99.90
792;DHT22;379;49.022;12.148;2023-04-20T02:14:15;2.30;99.90
792;DHT22;379;49.022;12.148;2023-04-20T02:16:42;2.30;99.90
792;DHT22;379;49.022;12.148;2023-04-20T02:19:08;2.40;99.90
792;DHT22;379;49.022;12.148;2023-04-20T02:21:35;2.40;99.90
792;DHT22;379;49.022;12.148;2023-04-20T02:24:02;2.50;99.90
792;DHT22;379;49.022;12.148;2023-04-20T02:26:29;2.60;99.90
792;DHT22;379;49.022;12.148;2023-04-20T02:28:56;2.60;99.90
792;DHT22;379;49.022;12.148;2023-04-20T02:31:24;2.70;99.90
792;DHT22;379;49.022;12.148;2023-04-20T02:33:51;2.70;99.90
792;DHT22;379;49.022;12.148;2023-04-20T02:36:17;2.70;99.90
792;DHT22;379;49.022;12.148;2023-04-20T02:38:44;2.70;99.90
792;DHT22;379;49.022;12.148;2023-04-20T02:41:11;2.60;99.90
792;DHT22;379;49.022;12.148;2023-04-20T02:43:37;2.60;99.90
792;DHT22;379;49.022;12.148;2023-04-20T02:46:04;2.60;99.90
792;DHT22;379;49.022;12.148;2023-04-20T02:48:33;2.60;99.90
792;DHT22;379;49.022;12.148;2023-04-20T02:51:00;2.60;99.90
792;DHT22;379;49.022;12.148;2023-04-20T02:53:26;2.60;99.90
792;DHT22;379;49.022;12.148;2023-04-20T02:55:53;2.60;99.90
792;DHT22;379;49.022;12.148;2023-04-20T02:58:20;2.60;99.90
792;DHT22;379;49.022;12.148;2023-04-20T03:00:46;2.60;99.90
792;DHT22;379;49.022;12.148;2023-04-20T03:03:13;2.70;99.90
792;DHT22;379;49.022;12.148;2023-04-20T03:05:42;2.80;99.90
792;DHT22;379;49.022;12.148;2023-04-20T03:08:08;2.80;99.90
792;DHT22;379;49.022;12.148;2023-04-20T03:10:35;2.90;99.90
792;DHT22;379;49.022;12.148;2023-04-20T03:13:02;2.90;99.90
792;DHT22;379;49.022;12.148;2023-04-20T03:15:28;2.90;99.90
792;DHT22;379;49.022;12.148;2023-04-20T03:17:55;2.90;99.90
792;DHT22;379;49.022;12.148;2023-04-20T03:20:22;2.90;99.90
792;DHT22;379;49.022;12.148;2023-04-20T03:22:50;2.90;99.90
792;DHT22;379;49.022;12.148;2023-04-20T03:25:17;2.90;99.90
792;DHT22;379;49.022;12.148;2023-04-20T03:27:44;2.90;99.90
792;DHT22;379;49.022;12.148;2023-04-20T03:30:12;2.90;99.90
792;DHT22;379;49.022;12.148;2023-04-20T03:32:38;2.90;99.90
792;DHT22;379;49.022;12.148;2023-04-20T03:35:06;2.90;99.90
792;DHT22;379;49.022;12.148;2023-04-20T03:37:33;2.90;99.90
792;DHT22;379;49.022;12.148;2023-04-20T03:40:01;2.90;99.90
792;DHT22;379;49.022;12.148;2023-04-20T03:42:28;2.90;99.90
792;DHT22;379;49.022;12.148;2023-04-20T03:44:55;2.90;99.90
792;DHT22;379;49.022;12.148;2023-04-20T03:47:22;2.90;99.90
792;DHT22;379;49.022;12.148;2023-04-20T03:49:49;2.90;99.90
792;DHT22;379;49.022;12.148;2023-04-20T03:52:16;2.90;99.90
792;DHT22;379;49.022;12.148;2023-04-20T03:54:42;2.90;99.90
792;DHT22;379;49.022;12.148;2023-04-20T03:57:10;3.00;99.90
792;DHT22;379;49.022;12.148;2023-04-20T03:59:37;3.00;99.90
792;DHT22;379;49.022;12.148;2023-04-20T04:02:04;3.00;99.90
792;DHT22;379;49.022;12.148;2023-04-20T04:04:32;3.00;99.90
792;DHT22;379;49.022;12.148;2023-04-20T04:06:58;3.00;99.90
792;DHT22;379;49.022;12.148;2023-04-20T04:09:25;3.00;99.90
792;DHT22;379;49.022;12.148;2023-04-20T04:11:52;3.00;99.90
792;DHT22;379;49.022;12.148;2023-04-20T04:14:20;3.10;99.90
792;DHT22;379;49.022;12.148;2023-04-20T04:16:46;3.10;99.90
792;DHT22;379;49.022;12.148;2023-04-20T04:19:13;3.10;99.90
792;DHT22;379;49.022;12.148;2023-04-20T04:21:40;3.20;99.90
792;DHT22;379;49.022;12.148;2023-04-20T04:24:07;3.20;99.90
792;DHT22;379;49.022;12.148;2023-04-20T04:26:34;3.30;99.90
792;DHT22;379;49.022;12.148;2023-04-20T04:29:00;3.30;99.90
792;DHT22;379;49.022;12.148;2023-04-20T04:31:30;3.40;99.90
792;DHT22;379;49.022;12.148;2023-04-20T04:33:57;3.40;99.90
792;DHT22;379;49.022;12.148;2023-04-20T04:36:23;3.50;99.90
792;DHT22;379;49.022;12.148;2023-04-20T04:38:51;3.50;99.90
792;DHT22;379;49.022;12.148;2023-04-20T04:41:18;3.50;99.90
792;DHT22;379;49.022;12.148;2023-04-20T04:43:45;3.60;99.90
792;DHT22;379;49.022;12.148;2023-04-20T04:46:12;3.60;99.90
792;DHT22;379;49.022;12.148;2023-04-20T04:48:40;3.70;99.90
792;DHT22;379;49.022;12.148;2023-04-20T04:51:08;3.70;99.90
792;DHT22;379;49.022;12.148;2023-04-20T04:53:35;3.70;99.90
792;DHT22;379;49.022;12.148;2023-04-20T04:56:02;3.70;99.90
792;DHT22;379;49.022;12.148;2023-04-20T04:58:32;3.80;99.90
792;DHT22;379;49.022;12.148;2023-04-20T05:00:58;3.80;99.90
792;DHT22;379;49.022;12.148;2023-04-20T05:03:25;3.80;99.90
792;DHT22;379;49.022;12.148;2023-04-20T05:05:53;3.80;99.90
792;DHT22;379;49.022;12.148;2023-04-20T05:08:21;3.90;99.90
792;DHT22;379;49.022;12.148;2023-04-20T05:10:48;3.90;99.90
792;DHT22;379;49.022;12.148;2023-04-20T05:13:15;3.90;99.90
792;DHT22;379;49.022;12.148;2023-04-20T05:15:42;3.90;99.90
792;DHT22;379;49.022;12.148;2023-04-20T05:18:09;4.00;99.90
792;DHT22;379;49.022;12.148;2023-04-20T05:20:36;4.10;99.90
792;DHT22;379;49.022;12.148;2023-04-20T05:23:04;4.20;99.90
792;DHT22;379;49.022;12.148;2023-04-20T05:25:31;4.40;99.90
792;DHT22;379;49.022;12.148;2023-04-20T05:27:58;4.50;99.90
792;DHT22;379;49.022;12.148;2023-04-20T05:30:25;4.60;99.90
792;DHT22;379;49.022;12.148;2023-04-20T05:32:51;4.70;99.90
792;DHT22;379;49.022;12.148;2023-04-20T05:35:19;4.80;99.90
792;DHT22;379;49.022;12.148;2023-04-20T05:37:45;4.90;99.90
792;DHT22;379;49.022;12.148;2023-04-20T05:40:14;5.00;99.90
792;DHT22;379;49.022;12.148;2023-04-20T05:42:41;5.10;99.90
792;DHT22;379;49.022;12.148;2023-04-20T05:45:09;5.30;99.90
792;DHT22;379;49.022;12.148;2023-04-20T05:47:36;5.30;99.90
792;DHT22;379;49.022;12.148;2023-04-20T05:50:03;5.40;99.90
792;DHT22;379;49.022;12.148;2023-04-20T05:52:30;5.40;99.90
792;DHT22;379;49.022;12.148;2023-04-20T05:54:57;5.50;99.90
792;DHT22;379;49.022;12.148;2023-04-20T05:57:25;5.50;99.90
792;DHT22;379;49.022;12.148;2023-04-20T05:59:52;5.60;99.90
792;DHT22;379;49.022;12.148;2023-04-20T06:02:20;5.80;99.90
792;DHT22;379;49.022;12.148;2023-04-20T06:04:47;5.80;99.90
792;DHT22;379;49.022;12.148;2023-04-20T06:07:13;6.00;99.90
792;DHT22;379;49.022;12.148;2023-04-20T06:09:40;6.20;99.90
792;DHT22;379;49.022;12.148;2023-04-20T06:12:07;6.40;99.90
792;DHT22;379;49.022;12.148;2023-04-20T06:14:35;6.60;99.90
792;DHT22;379;49.022;12.148;2023-04-20T06:17:02;6.80;99.90
792;DHT22;379;49.022;12.148;2023-04-20T06:19:29;7.10;99.90
792;DHT22;379;49.022;12.148;2023-04-20T06:21:56;7.40;99.90
792;DHT22;379;49.022;12.148;2023-04-20T06:24:23;7.60;99.90
792;DHT22;379;49.022;12.148;2023-04-20T06:26:50;7.70;99.90
792;DHT22;379;49.022;12.148;2023-04-20T06:29:17;7.60;99.30
792;DHT22;379;49.022;12.148;2023-04-20T06:31:45;7.60;98.60
792;DHT22;379;49.022;12.148;2023-04-20T06:34:11;7.80;97.90
792;DHT22;379;49.022;12.148;2023-04-20T06:36:41;8.00;99.00
792;DHT22;379;49.022;12.148;2023-04-20T06:39:08;8.20;97.20
792;DHT22;379;49.022;12.148;2023-04-20T06:41:36;8.40;93.40
792;DHT22;379;49.022;12.148;2023-04-20T06:44:02;8.50;92.90
792;DHT22;379;49.022;12.148;2023-04-20T06:46:30;8.50;92.60
792;DHT22;379;49.022;12.148;2023-04-20T06:48:58;8.50;92.10
792;DHT22;379;49.022;12.148;2023-04-20T06:51:24;8.70;92.20
792;DHT22;379;49.022;12.148;2023-04-20T06:53:52;8.70;91.30
792;DHT22;379;49.022;12.148;2023-04-20T06:56:19;8.80;91.00
792;DHT22;379;49.022;12.148;2023-04-20T06:58:46;8.90;91.40
792;DHT22;379;49.022;12.148;2023-04-20T07:01:13;8.90;90.50
792;DHT22;379;49.022;12.148;2023-04-20T07:03:39;9.00;90.10
792;DHT22;379;49.022;12.148;2023-04-20T07:06:08;9.20;88.40
792;DHT22;379;49.022;12.148;2023-04-20T07:08:37;9.40;87.50
792;DHT22;379;49.022;12.148;2023-04-20T07:11:04;9.50;83.80
792;DHT22;379;49.022;12.148;2023-04-20T07:13:31;9.40;83.80
792;DHT22;379;49.022;12.148;2023-04-20T07:15:57;9.60;85.30
792;DHT22;379;49.022;12.148;2023-04-20T07:18:24;9.80;84.80
792;DHT22;379;49.022;12.148;2023-04-20T07:20:51;10.10;83.80
792;DHT22;379;49.022;12.148;2023-04-20T07:23:19;10.30;80.20
792;DHT22;379;49.022;12.148;2023-04-20T07:25:46;10.10;77.60
792;DHT22;379;49.022;12.148;2023-04-20T07:28:12;9.80;79.80
792;DHT22;379;49.022;12.148;2023-04-20T07:30:39;9.70;82.10
792;DHT22;379;49.022;12.148;2023-04-20T07:33:06;9.70;81.40
792;DHT22;379;49.022;12.148;2023-04-20T07:35:33;9.50;78.10
792;DHT22;379;49.022;12.148;2023-04-20T07:38:00;9.40;77.60
792;DHT22;379;49.022;12.148;2023-04-20T07:40:28;9.30;77.30
792;DHT22;379;49.022;12.148;2023-04-20T07:42:55;9.30;76.60
792;DHT22;379;49.022;12.148;2023-04-20T07:45:21;9.40;78.30
792;DHT22;379;49.022;12.148;2023-04-20T07:47:48;9.50;76.10
792;DHT22;379;49.022;12.148;2023-04-20T07:50:16;9.40;75.10
792;DHT22;379;49.022;12.148;2023-04-20T07:52:42;9.30;75.80
792;DHT22;379;49.022;12.148;2023-04-20T07:55:09;9.20;76.50
792;DHT22;379;49.022;12.148;2023-04-20T07:57:39;9.10;75.70
792;DHT22;379;49.022;12.148;2023-04-20T08:00:07;8.80;75.20
792;DHT22;379;49.022;12.148;2023-04-20T08:02:37;8.70;76.60
792;DHT22;379;49.022;12.148;2023-04-20T08:05:04;8.70;76.70
792;DHT22;379;49.022;12.148;2023-04-20T08:07:31;8.70;75.90
792;DHT22;379;49.022;12.148;2023-04-20T08:09:57;8.50;76.00
792;DHT22;379;49.022;12.148;2023-04-20T08:12:25;8.50;76.90
792;DHT22;379;49.022;12.148;2023-04-20T08:14:53;8.50;76.40
792;DHT22;379;49.022;12.148;2023-04-20T08:17:24;8.40;76.00
792;DHT22;379;49.022;12.148;2023-04-20T08:19:51;8.10;75.90
792;DHT22;379;49.022;12.148;2023-04-20T08:22:17;7.90;76.50
792;DHT22;379;49.022;12.148;2023-04-20T08:24:44;7.80;77.50
792;DHT22;379;49.022;12.148;2023-04-20T08:27:11;7.70;77.60
792;DHT22;379;49.022;12.148;2023-04-20T08:29:38;7.60;78.10
792;DHT22;379;49.022;12.148;2023-04-20T08:32:06;7.50;78.00
792;DHT22;379;49.022;12.148;2023-04-20T08:34:34;7.50;78.30
792;DHT22;379;49.022;12.148;2023-04-20T08:37:01;7.40;79.10
792;DHT22;379;49.022;12.148;2023-04-20T08:39:28;7.30;78.80
792;DHT22;379;49.022;12.148;2023-04-20T08:41:55;7.40;79.30
792;DHT22;379;49.022;12.148;2023-04-20T08:44:21;7.60;79.50
792;DHT22;379;49.022;12.148;2023-04-20T08:46:49;7.70;78.70
792;DHT22;379;49.022;12.148;2023-04-20T08:49:18;7.70;78.60
792;DHT22;379;49.022;12.148;2023-04-20T08:51:46;7.80;79.10
792;DHT22;379;49.022;12.148;2023-04-20T08:54:13;8.00;78.50
792;DHT22;379;49.022;12.148;2023-04-20T08:56:42;8.00;78.20
792;DHT22;379;49.022;12.148;2023-04-20T08:59:09;8.20;78.60
792;DHT22;379;49.022;12.148;2023-04-20T09:01:39;8.30;77.60
792;DHT22;379;49.022;12.148;2023-04-20T09:04:14;8.30;77.30
792;DHT22;379;49.022;12.148;2023-04-20T09:06:44;8.40;78.70
792;DHT22;379;49.022;12.148;2023-04-20T09:09:11;8.60;78.40
792;DHT22;379;49.022;12.148;2023-04-20T09:11:38;8.70;76.90
792;DHT22;379;49.022;12.148;2023-04-20T09:14:06;8.70;77.70
792;DHT22;379;49.022;12.148;2023-04-20T09:16:35;8.80;77.30
792;DHT22;379;49.022;12.148;2023-04-20T09:19:04;8.80;76.90
792;DHT22;379;49.022;12.148;2023-04-20T09:21:30;8.60;76.20
792;DHT22;379;49.022;12.148;2023-04-20T09:24:00;8.40;76.50
792;DHT22;379;49.022;12.148;2023-04-20T09:26:31;8.20;77.00
792;DHT22;379;49.022;12.148;2023-04-20T09:28:58;8.10;78.00
792;DHT22;379;49.022;12.148;2023-04-20T09:31:25;7.90;77.70
792;DHT22;379;49.022;12.148;2023-04-20T09:33:59;7.80;78.40
792;DHT22;379;49.022;12.148;2023-04-20T09:36:37;7.80;78.80
792;DHT22;379;49.022;12.148;2023-04-20T09:39:07;7.90;78.90
792;DHT22;379;49.022;12.148;2023-04-20T09:41:35;8.20;79.20
792;DHT22;379;49.022;12.148;2023-04-20T09:44:02;8.30;78.00
792;DHT22;379;49.022;12.148;2023-04-20T09:46:30;8.30;78.00
792;DHT22;379;49.022;12.148;2023-04-20T09:48:58;8.40;77.90
792;DHT22;379;49.022;12.148;2023-04-20T09:51:25;8.40;78.10
792;DHT22;379;49.022;12.148;2023-04-20T09:53:54;8.60;77.70
792;DHT22;379;49.022;12.148;2023-04-20T09:56:23;8.70;77.00
792;DHT22;379;49.022;12.148;2023-04-20T09:58:50;8.70;77.10
792;DHT22;379;49.022;12.148;2023-04-20T10:01:18;9.00;77.80
792;DHT22;379;49.022;12.148;2023-04-20T10:03:45;9.30;75.30
792;DHT22;379;49.022;12.148;2023-04-20T10:06:19;9.30;75.10
792;DHT22;379;49.022;12.148;2023-04-20T10:08:46;9.40;74.20
792;DHT22;379;49.022;12.148;2023-04-20T10:11:25;9.50;74.10
792;DHT22;379;49.022;12.148;2023-04-20T10:13:52;9.60;74.60
792;DHT22;379;49.022;12.148;2023-04-20T10:16:19;9.70;74.60
792;DHT22;379;49.022;12.148;2023-04-20T10:18:55;9.70;74.10
792;DHT22;379;49.022;12.148;2023-04-20T10:21:22;9.80;74.20
792;DHT22;379;49.022;12.148;2023-04-20T10:23:50;10.00;73.90
792;DHT22;379;49.022;12.148;2023-04-20T10:26:17;10.30;72.80
792;DHT22;379;49.022;12.148;2023-04-20T10:28:45;10.40;72.10
792;DHT22;379;49.022;12.148;2023-04-20T10:31:13;10.70;72.70
792;DHT22;379;49.022;12.148;2023-04-20T10:33:51;10.90;70.20
792;DHT22;379;49.022;12.148;2023-04-20T10:36:27;11.10;69.90
792;DHT22;379;49.022;12.148;2023-04-20T10:38:54;11.10;69.10
792;DHT22;379;49.022;12.148;2023-04-20T10:41:21;11.30;68.90
792;DHT22;379;49.022;12.148;2023-04-20T10:43:49;11.30;67.40
792;DHT22;379;49.022;12.148;2023-04-20T10:46:17;11.20;68.60
792;DHT22;379;49.022;12.148;2023-04-20T10:48:51;11.20;68.00
792;DHT22;379;49.022;12.148;2023-04-20T10:51:18;11.10;67.30
792;DHT22;379;49.022;12.148;2023-04-20T10:53:45;11.00;68.20
792;DHT22;379;49.022;12.148;2023-04-20T10:56:12;10.90;67.70
792;DHT22;379;49.022;12.148;2023-04-20T10:58:39;10.90;67.70
792;DHT22;379;49.022;12.148;2023-04-20T11:01:07;11.00;69.30
792;DHT22;379;49.022;12.148;2023-04-20T11:03:34;11.40;68.60
792;DHT22;379;49.022;12.148;2023-04-20T11:06:00;12.00;67.20
792;DHT22;379;49.022;12.148;2023-04-20T11:08:38;12.50;65.20
792;DHT22;379;49.022;12.148;2023-04-20T11:11:15;12.80;64.00
792;DHT22;379;49.022;12.148;2023-04-20T11:13:42;12.80;63.00
792;DHT22;379;49.022;12.148;2023-04-20T11:16:12;12.80;62.10
792;DHT22;379;49.022;12.148;2023-04-20T11:18:49;13.00;62.70
792;DHT22;379;49.022;12.148;2023-04-20T11:21:17;13.10;63.10
792;DHT22;379;49.022;12.148;2023-04-20T11:23:44;13.20;62.10
792;DHT22;379;49.022;12.148;2023-04-20T11:26:11;13.30;62.40
792;DHT22;379;49.022;12.148;2023-04-20T11:28:38;13.30;61.20
792;DHT22;379;49.022;12.148;2023-04-20T11:31:04;13.10;60.60
792;DHT22;379;49.022;12.148;2023-04-20T11:33:32;13.10;62.20
792;DHT22;379;49.022;12.148;2023-04-20T11:35:59;13.30;63.00
792;DHT22;379;49.022;12.148;2023-04-20T11:38:28;13.70;63.10
792;DHT22;379;49.022;12.148;2023-04-20T11:40:55;14.10;61.00
792;DHT22;379;49.022;12.148;2023-04-20T11:43:24;14.30;59.60
792;DHT22;379;49.022;12.148;2023-04-20T11:45:51;14.50;60.00
792;DHT22;379;49.022;12.148;2023-04-20T11:48:17;14.70;58.90
792;DHT22;379;49.022;12.148;2023-04-20T11:50:45;14.60;58.70
792;DHT22;379;49.022;12.148;2023-04-20T11:53:12;14.50;60.10
792;DHT22;379;49.022;12.148;2023-04-20T11:55:40;14.50;59.60
792;DHT22;379;49.022;12.148;2023-04-20T11:58:07;14.60;60.90
792;DHT22;379;49.022;12.148;2023-04-20T12:00:34;14.70;59.90
792;DHT22;379;49.022;12.148;2023-04-20T12:03:01;14.60;61.20
792;DHT22;379;49.022;12.148;2023-04-20T12:05:27;14.60;62.50
792;DHT22;379;49.022;12.148;2023-04-20T12:07:56;14.40;62.00
792;DHT22;379;49.022;12.148;2023-04-20T12:10:22;14.20;62.00
792;DHT22;379;49.022;12.148;2023-04-20T12:12:49;14.00;62.80
792;DHT22;379;49.022;12.148;2023-04-20T12:15:16;13.80;61.10
792;DHT22;379;49.022;12.148;2023-04-20T12:17:43;13.50;62.00
792;DHT22;379;49.022;12.148;2023-04-20T12:20:10;13.40;64.30
792;DHT22;379;49.022;12.148;2023-04-20T12:22:37;13.30;64.10
792;DHT22;379;49.022;12.148;2023-04-20T12:25:06;13.20;63.50
792;DHT22;379;49.022;12.148;2023-04-20T12:27:33;13.10;62.80
792;DHT22;379;49.022;12.148;2023-04-20T12:30:00;13.00;64.10
792;DHT22;379;49.022;12.148;2023-04-20T12:32:27;12.70;63.60
792;DHT22;379;49.022;12.148;2023-04-20T12:34:53;12.60;65.20
792;DHT22;379;49.022;12.148;2023-04-20T12:37:20;12.60;65.10
792;DHT22;379;49.022;12.148;2023-04-20T12:39:47;12.70;65.70
792;DHT22;379;49.022;12.148;2023-04-20T12:42:15;12.90;65.80
792;DHT22;379;49.022;12.148;2023-04-20T12:44:42;13.10;64.50
792;DHT22;379;49.022;12.148;2023-04-20T12:47:08;13.10;63.70
792;DHT22;379;49.022;12.148;2023-04-20T12:49:35;13.10;64.00
792;DHT22;379;49.022;12.148;2023-04-20T12:52:02;13.10;66.10
792;DHT22;379;49.022;12.148;2023-04-20T12:54:29;13.30;66.70
792;DHT22;379;49.022;12.148;2023-04-20T12:56:55;13.50;66.00
792;DHT22;379;49.022;12.148;2023-04-20T12:59:23;13.80;63.90
792;DHT22;379;49.022;12.148;2023-04-20T13:01:50;13.90;63.40
792;DHT22;379;49.022;12.148;2023-04-20T13:04:17;14.00;64.10
792;DHT22;379;49.022;12.148;2023-04-20T13:06:43;14.40;65.00
792;DHT22;379;49.022;12.148;2023-04-20T13:09:10;14.90;63.60
792;DHT22;379;49.022;12.148;2023-04-20T13:11:37;15.20;60.60
792;DHT22;379;49.022;12.148;2023-04-20T13:14:04;15.30;62.20
792;DHT22;379;49.022;12.148;2023-04-20T13:16:32;15.50;63.10
792;DHT22;379;49.022;12.148;2023-04-20T13:18:59;15.90;63.00
792;DHT22;379;49.022;12.148;2023-04-20T13:21:25;16.00;60.60
792;DHT22;379;49.022;12.148;2023-04-20T13:23:52;16.30;59.10
792;DHT22;379;49.022;12.148;2023-04-20T13:26:19;16.40;57.20
792;DHT22;379;49.022;12.148;2023-04-20T13:28:46;16.40;57.40
792;DHT22;379;49.022;12.148;2023-04-20T13:31:12;16.20;57.80
792;DHT22;379;49.022;12.148;2023-04-20T13:33:41;16.10;57.50
792;DHT22;379;49.022;12.148;2023-04-20T13:36:07;15.70;58.30
792;DHT22;379;49.022;12.148;2023-04-20T13:38:34;15.50;58.90
792;DHT22;379;49.022;12.148;2023-04-20T13:41:01;15.20;58.70
792;DHT22;379;49.022;12.148;2023-04-20T13:43:28;15.00;59.50
792;DHT22;379;49.022;12.148;2023-04-20T13:45:54;14.80;60.40
792;DHT22;379;49.022;12.148;2023-04-20T13:48:22;14.80;60.70
792;DHT22;379;49.022;12.148;2023-04-20T13:50:50;14.80;60.80
792;DHT22;379;49.022;12.148;2023-04-20T13:53:18;14.90;60.70
792;DHT22;379;49.022;12.148;2023-04-20T13:55:46;14.90;61.40
792;DHT22;379;49.022;12.148;2023-04-20T13:58:13;15.10;61.00
792;DHT22;379;49.022;12.148;2023-04-20T14:00:40;15.20;60.50
792;DHT22;379;49.022;12.148;2023-04-20T14:03:08;15.10;60.40
792;DHT22;379;49.022;12.148;2023-04-20T14:05:34;15.00;61.10
792;DHT22;379;49.022;12.148;2023-04-20T14:08:03;14.90;60.10
792;DHT22;379;49.022;12.148;2023-04-20T14:10:31;14.70;60.80
792;DHT22;379;49.022;12.148;2023-04-20T14:12:58;14.70;61.50
792;DHT22;379;49.022;12.148;2023-04-20T14:15:26;14.70;60.40
792;DHT22;379;49.022;12.148;2023-04-20T14:17:53;14.60;61.00
792;DHT22;379;49.022;12.148;2023-04-20T14:20:20;14.60;61.40
792;DHT22;379;49.022;12.148;2023-04-20T14:22:46;14.60;61.00
792;DHT22;379;49.022;12.148;2023-04-20T14:25:14;14.60;61.20
792;DHT22;379;49.022;12.148;2023-04-20T14:27:41;14.70;61.40
792;DHT22;379;49.022;12.148;2023-04-20T14:30:09;14.60;60.70
792;DHT22;379;49.022;12.148;2023-04-20T14:32:36;14.50;61.20
792;DHT22;379;49.022;12.148;2023-04-20T14:35:03;14.40;62.80
792;DHT22;379;49.022;12.148;2023-04-20T14:37:30;14.30;62.30
792;DHT22;379;49.022;12.148;2023-04-20T14:39:57;14.20;61.90
792;DHT22;379;49.022;12.148;2023-04-20T14:42:25;14.00;62.80
792;DHT22;379;49.022;12.148;2023-04-20T14:44:52;13.90;63.00
792;DHT22;379;49.022;12.148;2023-04-20T14:47:18;13.80;63.90
792;DHT22;379;49.022;12.148;2023-04-20T14:49:45;13.80;63.50
792;DHT22;379;49.022;12.148;2023-04-20T14:52:12;13.60;63.70
792;DHT22;379;49.022;12.148;2023-04-20T14:54:39;13.50;64.60
792;DHT22;379;49.022;12.148;2023-04-20T14:57:05;13.50;65.00
792;DHT22;379;49.022;12.148;2023-04-20T14:59:33;13.50;64.70
792;DHT22;379;49.022;12.148;2023-04-20T15:02:01;13.30;65.40
792;DHT22;379;49.022;12.148;2023-04-20T15:04:30;13.20;65.40
792;DHT22;379;49.022;12.148;2023-04-20T15:06:56;12.90;65.90
792;DHT22;379;49.022;12.148;2023-04-20T15:09:23;12.70;66.50
792;DHT22;379;49.022;12.148;2023-04-20T15:11:50;12.50;67.10
792;DHT22;379;49.022;12.148;2023-04-20T15:14:17;12.40;67.40
792;DHT22;379;49.022;12.148;2023-04-20T15:16:45;12.20;67.80
792;DHT22;379;49.022;12.148;2023-04-20T15:19:11;12.00;68.80
792;DHT22;379;49.022;12.148;2023-04-20T15:21:38;11.90;69.50
792;DHT22;379;49.022;12.148;2023-04-20T15:24:05;11.90;69.80
792;DHT22;379;49.022;12.148;2023-04-20T15:26:32;11.80;70.00
792;DHT22;379;49.022;12.148;2023-04-20T15:28:59;11.80;70.10
792;DHT22;379;49.022;12.148;2023-04-20T15:31:26;11.70;70.60
792;DHT22;379;49.022;12.148;2023-04-20T15:33:55;11.60;71.10
792;DHT22;379;49.022;12.148;2023-04-20T15:36:22;11.50;71.70
792;DHT22;379;49.022;12.148;2023-04-20T15:38:49;11.40;72.10
792;DHT22;379;49.022;12.148;2023-04-20T15:41:16;11.40;72.50
792;DHT22;379;49.022;12.148;2023-04-20T15:43:43;11.50;72.80
792;DHT22;379;49.022;12.148;2023-04-20T15:46:10;11.50;72.80
792;DHT22;379;49.022;12.148;2023-04-20T15:48:37;11.50;73.20
792;DHT22;379;49.022;12.148;2023-04-20T15:51:05;11.40;72.90
792;DHT22;379;49.022;12.148;2023-04-20T15:53:32;11.40;73.30
792;DHT22;379;49.022;12.148;2023-04-20T15:55:58;11.40;73.40
792;DHT22;379;49.022;12.148;2023-04-20T15:58:26;11.40;73.60
792;DHT22;379;49.022;12.148;2023-04-20T16:00:52;11.40;73.90
792;DHT22;379;49.022;12.148;2023-04-20T16:03:19;11.40;73.90
792;DHT22;379;49.022;12.148;2023-04-20T16:05:46;11.40;74.00
792;DHT22;379;49.022;12.148;2023-04-20T16:08:14;11.20;73.90
792;DHT22;379;49.022;12.148;2023-04-20T16:10:43;11.20;74.50
792;DHT22;379;49.022;12.148;2023-04-20T16:13:10;11.20;74.80
792;DHT22;379;49.022;12.148;2023-04-20T16:15:37;11.20;74.90
792;DHT22;379;49.022;12.148;2023-04-20T16:18:04;11.10;74.90
792;DHT22;379;49.022;12.148;2023-04-20T16:20:31;11.10;75.20
792;DHT22;379;49.022;12.148;2023-04-20T16:22:57;11.10;75.40
792;DHT22;379;49.022;12.148;2023-04-20T16:25:26;11.10;75.80
792;DHT22;379;49.022;12.148;2023-04-20T16:27:53;11.10;76.00
792;DHT22;379;49.022;12.148;2023-04-20T16:30:20;11.10;76.00